createdAt,value
2017-12-09T00:00:14.099Z,7.80
2017-12-09T00:01:14.107Z,7.80
2017-12-09T00:02:14.118Z,7.90
2017-12-09T00:03:14.131Z,7.40
2017-12-09T00:04:14.144Z,8.00
2017-12-09T00:05:14.157Z,8.00
2017-12-09T00:06:14.172Z,7.30
2017-12-09T00:07:14.185Z,7.60
2017-12-09T00:08:14.196Z,6.90
2017-12-09T00:09:14.211Z,6.70
2017-12-09T00:10:14.220Z,6.90
2017-12-09T00:11:14.230Z,6.30
2017-12-09T00:12:14.243Z,6.50
2017-12-09T00:13:14.256Z,6.20
2017-12-09T00:14:14.268Z,6.00
2017-12-09T00:15:14.347Z,6.30
2017-12-09T00:16:14.296Z,5.80
2017-12-09T00:17:14.310Z,5.90
2017-12-09T00:18:14.321Z,5.70
2017-12-09T00:19:14.334Z,5.50
2017-12-09T00:20:14.345Z,5.10
2017-12-09T00:21:14.356Z,5.00
2017-12-09T00:22:14.371Z,5.50
2017-12-09T00:23:14.382Z,5.00
2017-12-09T00:24:14.395Z,5.20
2017-12-09T00:25:14.406Z,5.30
2017-12-09T00:26:14.420Z,7.30
2017-12-09T00:27:14.431Z,5.00
2017-12-09T00:28:14.444Z,5.40
2017-12-09T00:29:14.463Z,4.90
2017-12-09T00:30:14.471Z,5.40
2017-12-09T00:31:14.479Z,5.40
2017-12-09T00:32:14.494Z,5.80
2017-12-09T00:33:14.506Z,5.10
2017-12-09T00:34:14.519Z,6.60
2017-12-09T00:35:14.561Z,6.50
2017-12-09T00:36:14.545Z,7.70
2017-12-09T00:37:14.558Z,6.80
2017-12-09T00:38:14.566Z,8.30
2017-12-09T00:39:14.579Z,11.10
2017-12-09T00:40:14.592Z,8.90
2017-12-09T00:41:14.607Z,13.00
2017-12-09T00:42:14.618Z,7.20
2017-12-09T00:43:14.628Z,9.00
2017-12-09T00:44:14.642Z,8.00
2017-12-09T00:45:14.654Z,9.90
2017-12-09T00:46:14.665Z,10.70
2017-12-09T00:47:14.680Z,12.80
2017-12-09T00:48:14.699Z,12.20
2017-12-09T00:49:14.703Z,14.60
2017-12-09T00:50:14.719Z,13.10
2017-12-09T00:51:14.728Z,13.00
2017-12-09T00:52:14.741Z,10.50
2017-12-09T00:53:14.758Z,12.70
2017-12-09T00:54:14.771Z,14.70
2017-12-09T00:55:14.779Z,10.40
2017-12-09T00:56:14.790Z,11.60
2017-12-09T00:57:14.801Z,9.50
2017-12-09T00:58:14.814Z,10.80
2017-12-09T00:59:14.825Z,14.00
2017-12-09T01:00:14.839Z,13.80
2017-12-09T01:01:14.860Z,9.10
2017-12-09T01:02:14.866Z,9.70
2017-12-09T01:03:14.877Z,10.30
2017-12-09T01:04:14.889Z,15.30
2017-12-09T01:05:14.901Z,17.00
2017-12-09T01:06:14.913Z,14.60
2017-12-09T01:07:14.925Z,18.90
2017-12-09T01:08:14.935Z,13.70
2017-12-09T01:09:14.950Z,13.90
2017-12-09T01:10:14.968Z,11.30
2017-12-09T01:11:14.977Z,11.10
2017-12-09T01:12:14.989Z,14.80
2017-12-09T01:13:14.999Z,12.70
2017-12-09T01:14:15.014Z,14.80
2017-12-09T01:15:15.025Z,16.00
2017-12-09T01:16:15.036Z,11.60
2017-12-09T01:17:15.050Z,17.20
2017-12-09T01:18:15.060Z,12.00
2017-12-09T01:19:15.073Z,14.70
2017-12-09T01:20:15.085Z,16.20
2017-12-09T01:21:15.104Z,13.30
2017-12-09T01:22:15.160Z,11.60
2017-12-09T01:23:15.123Z,13.50
2017-12-09T01:24:15.135Z,10.60
2017-12-09T01:25:15.149Z,11.90
2017-12-09T01:26:15.159Z,14.40
2017-12-09T01:27:15.172Z,14.60
2017-12-09T01:28:15.192Z,15.50
2017-12-09T01:29:15.207Z,13.50
2017-12-09T01:30:15.206Z,16.30
2017-12-09T01:31:15.221Z,14.20
2017-12-09T01:32:15.232Z,17.30
2017-12-09T01:33:15.246Z,17.50
2017-12-09T01:34:15.257Z,17.00
2017-12-09T01:35:15.269Z,13.30
2017-12-09T01:36:15.289Z,11.50
2017-12-09T01:37:15.292Z,14.40
2017-12-09T01:38:15.311Z,19.30
2017-12-09T01:39:15.318Z,19.00
2017-12-09T01:40:15.329Z,16.60
2017-12-09T01:41:15.342Z,16.20
2017-12-09T01:42:15.355Z,16.50
2017-12-09T01:43:15.366Z,13.20
2017-12-09T01:44:15.392Z,11.10
2017-12-09T01:45:15.392Z,17.30
2017-12-09T01:46:15.406Z,18.50
2017-12-09T01:47:15.420Z,19.70
2017-12-09T01:48:15.429Z,12.70
2017-12-09T01:49:15.443Z,10.90
2017-12-09T01:50:15.455Z,16.90
2017-12-09T01:51:15.466Z,13.70
2017-12-09T01:52:15.478Z,14.30
2017-12-09T01:53:15.492Z,17.40
2017-12-09T01:54:15.502Z,18.60
2017-12-09T01:55:15.517Z,14.40
2017-12-09T01:56:15.527Z,20.40
2017-12-09T01:57:15.541Z,17.00
2017-12-09T01:58:15.551Z,17.30
2017-12-09T01:59:15.565Z,20.50
2017-12-09T02:00:15.577Z,14.40
2017-12-09T02:01:15.586Z,21.80
2017-12-09T02:02:15.601Z,16.40
2017-12-09T02:03:15.613Z,16.90
2017-12-09T02:04:15.625Z,21.30
2017-12-09T02:05:15.645Z,18.10
2017-12-09T02:06:15.651Z,18.10
2017-12-09T02:07:15.665Z,19.90
2017-12-09T02:08:15.678Z,16.40
2017-12-09T02:09:15.685Z,18.80
2017-12-09T02:10:15.697Z,18.60
2017-12-09T02:11:15.711Z,17.80
2017-12-09T02:12:15.728Z,20.10
2017-12-09T02:13:15.735Z,18.80
2017-12-09T02:14:15.747Z,13.00
2017-12-09T02:15:15.760Z,19.30
2017-12-09T02:16:15.770Z,24.00
2017-12-09T02:17:15.786Z,13.10
2017-12-09T02:18:15.798Z,14.60
2017-12-09T02:19:15.811Z,16.00
2017-12-09T02:20:15.820Z,16.70
2017-12-09T02:21:15.833Z,16.30
2017-12-09T02:22:15.845Z,18.70
2017-12-09T02:23:15.859Z,16.60
2017-12-09T02:24:15.878Z,19.10
2017-12-09T02:25:15.881Z,14.90
2017-12-09T02:26:15.894Z,12.60
2017-12-09T02:27:15.906Z,15.70
2017-12-09T02:28:15.922Z,18.10
2017-12-09T02:29:15.933Z,15.00
2017-12-09T02:30:15.942Z,14.30
2017-12-09T02:31:15.958Z,13.90
2017-12-09T02:32:15.970Z,11.20
2017-12-09T02:33:15.982Z,15.80
2017-12-09T02:34:15.993Z,14.10
2017-12-09T02:35:16.015Z,14.50
2017-12-09T02:36:16.018Z,13.70
2017-12-09T02:37:16.029Z,13.00
2017-12-09T02:38:16.038Z,12.40
2017-12-09T02:39:16.053Z,16.50
2017-12-09T02:40:16.067Z,9.70
2017-12-09T02:41:16.076Z,12.90
2017-12-09T02:42:16.089Z,12.10
2017-12-09T02:43:16.105Z,9.10
2017-12-09T02:44:16.116Z,11.30
2017-12-09T02:45:16.126Z,15.30
2017-12-09T02:46:16.135Z,12.40
2017-12-09T02:47:16.147Z,10.30
2017-12-09T02:48:16.160Z,12.40
2017-12-09T02:49:16.172Z,8.60
2017-12-09T02:50:16.186Z,12.00
2017-12-09T02:51:16.197Z,13.50
2017-12-09T02:52:16.210Z,13.70
2017-12-09T02:53:16.222Z,14.30
2017-12-09T02:54:16.233Z,12.30
2017-12-09T02:55:16.250Z,12.00
2017-12-09T02:56:16.261Z,10.10
2017-12-09T02:57:16.271Z,17.90
2017-12-09T02:58:16.284Z,14.70
2017-12-09T02:59:16.294Z,17.60
2017-12-09T03:00:16.307Z,20.80
2017-12-09T03:01:16.321Z,15.50
2017-12-09T03:02:16.335Z,8.50
2017-12-09T03:03:16.344Z,11.50
2017-12-09T03:04:16.357Z,15.20
2017-12-09T03:05:16.368Z,12.50
2017-12-09T03:06:16.381Z,15.90
2017-12-09T03:07:16.396Z,9.20
2017-12-09T03:08:16.407Z,15.90
2017-12-09T03:09:16.414Z,12.20
2017-12-09T03:10:16.426Z,16.60
2017-12-09T03:11:16.439Z,14.80
2017-12-09T03:12:16.457Z,10.80
2017-12-09T03:13:16.467Z,13.00
2017-12-09T03:14:16.480Z,11.40
2017-12-09T03:15:16.497Z,14.90
2017-12-09T03:16:16.502Z,19.90
2017-12-09T03:17:16.511Z,16.70
2017-12-09T03:18:16.526Z,15.20
2017-12-09T03:19:16.536Z,15.30
2017-12-09T03:20:16.549Z,13.50
2017-12-09T03:21:16.560Z,12.80
2017-12-09T03:22:16.573Z,14.90
2017-12-09T03:23:16.588Z,17.00
2017-12-09T03:24:16.600Z,14.60
2017-12-09T03:25:16.610Z,14.40
2017-12-09T03:26:16.623Z,12.40
2017-12-09T03:27:16.634Z,15.90
2017-12-09T03:28:16.646Z,12.10
2017-12-09T03:29:16.659Z,13.90
2017-12-09T03:30:16.671Z,14.30
2017-12-09T03:31:16.686Z,11.20
2017-12-09T03:32:16.698Z,15.60
2017-12-09T03:33:16.707Z,10.70
2017-12-09T03:34:16.723Z,11.10
2017-12-09T03:35:16.733Z,16.40
2017-12-09T03:36:16.749Z,14.40
2017-12-09T03:37:16.757Z,13.30
2017-12-09T03:38:16.774Z,10.30
2017-12-09T03:39:16.782Z,13.50
2017-12-09T03:40:16.792Z,13.80
2017-12-09T03:41:16.806Z,16.80
2017-12-09T03:42:16.819Z,16.60
2017-12-09T03:43:16.849Z,15.60
2017-12-09T03:44:16.843Z,11.30
2017-12-09T03:45:16.853Z,11.30
2017-12-09T03:46:16.867Z,16.80
2017-12-09T03:47:16.882Z,19.80
2017-12-09T03:48:16.894Z,16.60
2017-12-09T03:49:16.906Z,14.60
2017-12-09T03:50:16.919Z,14.30
2017-12-09T03:51:16.927Z,10.70
2017-12-09T03:52:16.941Z,12.80
2017-12-09T03:53:16.957Z,19.40
2017-12-09T03:54:16.972Z,13.20
2017-12-09T03:55:16.977Z,13.10
2017-12-09T03:56:16.990Z,15.00
2017-12-09T03:57:17.000Z,14.00
2017-12-09T03:58:17.016Z,10.30
2017-12-09T03:59:17.027Z,14.90
2017-12-09T04:00:17.036Z,11.70
2017-12-09T04:01:17.049Z,16.80
2017-12-09T04:02:17.062Z,10.80
2017-12-09T04:03:17.082Z,14.40
2017-12-09T04:04:17.088Z,14.60
2017-12-09T04:05:17.098Z,20.80
2017-12-09T04:06:17.112Z,14.80
2017-12-09T04:07:17.126Z,16.60
2017-12-09T04:08:17.136Z,13.00
2017-12-09T04:09:17.145Z,15.00
2017-12-09T04:10:17.160Z,16.70
2017-12-09T04:11:17.179Z,13.70
2017-12-09T04:12:17.185Z,12.10
2017-12-09T04:13:17.201Z,15.70
2017-12-09T04:14:17.212Z,17.80
2017-12-09T04:15:17.223Z,16.60
2017-12-09T04:16:17.238Z,16.90
2017-12-09T04:17:17.244Z,16.80
2017-12-09T04:18:17.260Z,12.40
2017-12-09T04:19:17.271Z,12.40
2017-12-09T04:20:17.282Z,16.10
2017-12-09T04:21:17.294Z,15.20
2017-12-09T04:22:17.308Z,17.30
2017-12-09T04:23:17.324Z,18.70
2017-12-09T04:24:17.333Z,15.70
2017-12-09T04:25:17.342Z,16.50
2017-12-09T04:26:17.356Z,16.90
2017-12-09T04:27:17.370Z,15.90
2017-12-09T04:28:17.380Z,17.10
2017-12-09T04:29:17.393Z,15.50
2017-12-09T04:30:17.403Z,14.30
2017-12-09T04:31:17.421Z,18.10
2017-12-09T04:32:17.429Z,13.40
2017-12-09T04:33:17.452Z,14.60
2017-12-09T04:34:17.454Z,13.90
2017-12-09T04:35:17.485Z,16.40
2017-12-09T04:36:17.480Z,15.70
2017-12-09T04:37:17.496Z,13.30
2017-12-09T04:38:17.505Z,15.10
2017-12-09T04:39:17.516Z,19.70
2017-12-09T04:40:17.527Z,12.80
2017-12-09T04:41:17.538Z,16.10
2017-12-09T04:42:17.553Z,13.60
2017-12-09T04:43:17.566Z,14.40
2017-12-09T04:44:17.577Z,14.90
2017-12-09T04:45:17.588Z,15.00
2017-12-09T04:46:17.598Z,8.80
2017-12-09T04:47:17.613Z,10.20
2017-12-09T04:48:17.628Z,14.40
2017-12-09T04:49:17.635Z,18.70
2017-12-09T04:50:17.651Z,23.60
2017-12-09T04:51:17.661Z,16.20
2017-12-09T04:52:17.677Z,10.60
2017-12-09T04:53:17.683Z,10.20
2017-12-09T04:54:17.696Z,11.00
2017-12-09T04:55:17.713Z,12.50
2017-12-09T04:56:17.724Z,15.80
2017-12-09T04:57:17.737Z,14.50
2017-12-09T04:58:17.747Z,15.50
2017-12-09T04:59:17.760Z,10.50
2017-12-09T05:00:17.771Z,13.80
2017-12-09T05:01:17.781Z,15.30
2017-12-09T05:02:17.796Z,12.30
2017-12-09T05:03:17.806Z,15.10
2017-12-09T05:04:17.818Z,11.50
2017-12-09T05:05:17.830Z,11.10
2017-12-09T05:06:17.844Z,13.30
2017-12-09T05:07:17.856Z,12.50
2017-12-09T05:08:17.866Z,12.80
2017-12-09T05:09:17.877Z,17.10
2017-12-09T05:10:17.890Z,14.00
2017-12-09T05:11:17.902Z,12.90
2017-12-09T05:12:17.917Z,15.10
2017-12-09T05:13:17.931Z,14.50
2017-12-09T05:14:17.937Z,13.30
2017-12-09T05:15:17.956Z,18.30
2017-12-09T05:16:17.967Z,14.80
2017-12-09T05:17:17.976Z,15.90
2017-12-09T05:18:17.990Z,13.50
2017-12-09T05:19:18.001Z,15.00
2017-12-09T05:20:18.017Z,16.70
2017-12-09T05:21:18.023Z,15.60
2017-12-09T05:22:18.038Z,19.10
2017-12-09T05:23:18.047Z,13.50
2017-12-09T05:24:18.063Z,14.30
2017-12-09T05:25:18.074Z,17.00
2017-12-09T05:26:18.084Z,16.30
2017-12-09T05:27:18.098Z,17.10
2017-12-09T05:28:18.110Z,16.90
2017-12-09T05:29:18.123Z,15.50
2017-12-09T05:30:18.132Z,19.00
2017-12-09T05:31:18.149Z,17.30
2017-12-09T05:32:18.158Z,13.10
2017-12-09T05:33:18.169Z,14.30
2017-12-09T05:34:18.182Z,17.80
2017-12-09T05:35:18.198Z,16.10
2017-12-09T05:36:18.208Z,13.00
2017-12-09T05:37:18.223Z,15.70
2017-12-09T05:38:18.230Z,21.00
2017-12-09T05:39:18.244Z,18.70
2017-12-09T05:40:18.256Z,19.00
2017-12-09T05:41:18.273Z,20.50
2017-12-09T05:42:18.279Z,13.80
2017-12-09T05:43:18.293Z,17.90
2017-12-09T05:44:18.309Z,19.30
2017-12-09T05:45:18.317Z,17.80
2017-12-09T05:46:18.327Z,19.40
2017-12-09T05:47:18.341Z,17.80
2017-12-09T05:48:18.351Z,19.10
2017-12-09T05:49:18.367Z,20.10
2017-12-09T05:50:18.378Z,16.70
2017-12-09T05:51:18.390Z,19.10
2017-12-09T05:52:18.402Z,14.20
2017-12-09T05:53:18.415Z,17.40
2017-12-09T05:54:18.427Z,13.40
2017-12-09T05:55:18.436Z,17.60
2017-12-09T05:56:18.450Z,17.80
2017-12-09T05:57:18.460Z,12.20
2017-12-09T05:58:18.474Z,13.70
2017-12-09T05:59:18.488Z,11.30
2017-12-09T06:00:18.500Z,20.70
2017-12-09T06:01:18.539Z,13.20
2017-12-09T06:02:18.524Z,19.20
2017-12-09T06:03:18.543Z,16.60
2017-12-09T06:04:18.549Z,14.80
2017-12-09T06:05:18.558Z,19.40
2017-12-09T06:06:18.573Z,15.50
2017-12-09T06:07:18.586Z,18.00
2017-12-09T06:08:18.603Z,17.80
2017-12-09T06:09:18.608Z,18.70
2017-12-09T06:10:18.629Z,19.50
2017-12-09T06:11:18.752Z,18.20
2017-12-09T06:12:18.647Z,15.30
2017-12-09T06:13:18.667Z,11.90
2017-12-09T06:14:18.670Z,16.50
2017-12-09T06:15:18.698Z,14.90
2017-12-09T06:16:18.698Z,15.80
2017-12-09T06:17:18.710Z,19.20
2017-12-09T06:18:18.719Z,15.80
2017-12-09T06:19:18.729Z,21.20
2017-12-09T06:20:18.742Z,15.20
2017-12-09T06:21:18.751Z,18.30
2017-12-09T06:22:18.763Z,20.60
2017-12-09T06:23:18.779Z,28.70
2017-12-09T06:24:18.790Z,19.10
2017-12-09T06:25:18.802Z,15.90
2017-12-09T06:26:18.816Z,19.60
2017-12-09T06:27:18.827Z,20.80
2017-12-09T06:28:18.850Z,28.20
2017-12-09T06:29:18.848Z,16.30
2017-12-09T06:30:18.864Z,22.50
2017-12-09T06:31:18.872Z,18.80
2017-12-09T06:32:18.886Z,22.10
2017-12-09T06:33:18.899Z,17.00
2017-12-09T06:34:18.909Z,21.10
2017-12-09T06:35:18.921Z,11.50
2017-12-09T06:36:18.934Z,19.50
2017-12-09T06:37:18.949Z,19.10
2017-12-09T06:38:18.957Z,18.90
2017-12-09T06:39:18.970Z,20.20
2017-12-09T06:40:18.981Z,18.20
2017-12-09T06:41:18.993Z,16.90
2017-12-09T06:42:19.006Z,16.60
2017-12-09T06:43:19.016Z,18.50
2017-12-09T06:44:19.031Z,16.60
2017-12-09T06:45:19.040Z,19.30
2017-12-09T06:46:19.053Z,14.90
2017-12-09T06:47:19.065Z,19.80
2017-12-09T06:48:19.077Z,17.70
2017-12-09T06:49:19.099Z,16.80
2017-12-09T06:50:19.102Z,18.60
2017-12-09T06:51:19.114Z,18.70
2017-12-09T06:52:19.126Z,19.60
2017-12-09T06:53:19.135Z,15.10
2017-12-09T06:54:19.150Z,17.30
2017-12-09T06:55:19.163Z,16.80
2017-12-09T06:56:19.176Z,17.20
2017-12-09T06:57:19.186Z,16.20
2017-12-09T06:58:19.225Z,15.20
2017-12-09T06:59:19.216Z,14.30
2017-12-09T07:00:19.224Z,17.40
2017-12-09T07:01:19.236Z,14.80
2017-12-09T07:02:19.245Z,17.70
2017-12-09T07:03:19.262Z,21.50
2017-12-09T07:04:19.270Z,13.70
2017-12-09T07:05:19.279Z,20.50
2017-12-09T07:06:19.296Z,12.10
2017-12-09T07:07:19.304Z,16.70
2017-12-09T07:08:19.324Z,13.80
2017-12-09T07:09:19.329Z,16.80
2017-12-09T07:10:19.343Z,17.50
2017-12-09T07:11:19.354Z,14.30
2017-12-09T07:12:19.373Z,15.30
2017-12-09T07:13:19.376Z,19.30
2017-12-09T07:14:19.388Z,13.00
2017-12-09T07:15:19.411Z,15.60
2017-12-09T07:16:19.419Z,16.30
2017-12-09T07:17:19.428Z,17.40
2017-12-09T07:18:19.443Z,15.20
2017-12-09T07:19:19.457Z,16.80
2017-12-09T07:20:19.466Z,15.60
2017-12-09T07:21:19.478Z,16.50
2017-12-09T07:22:19.487Z,12.40
2017-12-09T07:23:19.499Z,17.10
2017-12-09T07:24:19.516Z,12.80
2017-12-09T07:25:19.524Z,17.30
2017-12-09T07:26:19.537Z,11.70
2017-12-09T07:27:19.549Z,12.60
2017-12-09T07:28:19.565Z,14.40
2017-12-09T07:29:19.572Z,15.00
2017-12-09T07:30:19.594Z,13.60
2017-12-09T07:31:19.607Z,15.50
2017-12-09T07:32:19.608Z,13.90
2017-12-09T07:33:19.622Z,13.90
2017-12-09T07:34:19.633Z,11.60
2017-12-09T07:35:19.650Z,17.20
2017-12-09T07:36:19.667Z,16.60
2017-12-09T07:37:19.670Z,14.20
2017-12-09T07:38:19.683Z,13.20
2017-12-09T07:39:19.692Z,12.90
2017-12-09T07:40:19.713Z,12.10
2017-12-09T07:41:19.725Z,17.60
2017-12-09T07:42:19.730Z,10.30
2017-12-09T07:43:19.743Z,11.90
2017-12-09T07:44:19.754Z,13.10
2017-12-09T07:45:19.763Z,11.00
2017-12-09T07:46:19.782Z,12.30
2017-12-09T07:47:19.789Z,11.70
2017-12-09T07:48:19.800Z,11.60
2017-12-09T07:49:19.812Z,10.30
2017-12-09T07:50:19.824Z,10.00
2017-12-09T07:51:19.841Z,12.00
2017-12-09T07:52:19.865Z,9.60
2017-12-09T07:53:19.867Z,10.00
2017-12-09T07:54:19.876Z,11.10
2017-12-09T07:55:19.889Z,13.80
2017-12-09T07:56:19.897Z,10.10
2017-12-09T07:57:19.909Z,9.90
2017-12-09T07:58:19.923Z,8.70
2017-12-09T07:59:19.935Z,11.80
2017-12-09T08:00:19.948Z,7.70
2017-12-09T08:01:19.968Z,9.50
2017-12-09T08:02:19.971Z,9.20
2017-12-09T08:03:19.982Z,10.10
2017-12-09T08:04:19.994Z,7.80
2017-12-09T08:05:20.006Z,10.10
2017-12-09T08:06:20.019Z,9.80
2017-12-09T08:07:20.030Z,8.80
2017-12-09T08:08:20.042Z,9.20
2017-12-09T08:09:20.053Z,8.00
2017-12-09T08:10:20.069Z,11.40
2017-12-09T08:11:20.079Z,9.70
2017-12-09T08:12:20.096Z,8.30
2017-12-09T08:13:20.103Z,9.40
2017-12-09T08:14:20.121Z,7.60
2017-12-09T08:15:20.126Z,7.80
2017-12-09T08:16:20.137Z,9.50
2017-12-09T08:17:20.149Z,10.60
2017-12-09T08:18:20.159Z,6.20
2017-12-09T08:19:20.173Z,9.40
2017-12-09T08:20:20.188Z,7.20
2017-12-09T08:21:20.200Z,8.80
2017-12-09T08:22:20.206Z,6.10
2017-12-09T08:23:20.364Z,6.10
2017-12-09T08:24:20.232Z,6.00
2017-12-09T08:25:20.247Z,6.00
2017-12-09T08:26:20.255Z,6.30
2017-12-09T08:27:20.273Z,8.20
2017-12-09T08:28:20.279Z,6.00
2017-12-09T08:29:20.288Z,7.00
2017-12-09T08:30:20.303Z,7.10
2017-12-09T08:31:20.316Z,6.80
2017-12-09T08:32:20.330Z,7.80
2017-12-09T08:33:20.341Z,6.20
2017-12-09T08:34:20.354Z,5.10
2017-12-09T08:35:20.366Z,4.20
2017-12-09T08:36:20.377Z,4.30
2017-12-09T08:37:20.387Z,4.90
2017-12-09T08:38:20.400Z,6.80
2017-12-09T08:39:20.411Z,6.80
2017-12-09T08:40:20.423Z,7.20
2017-12-09T08:41:20.434Z,6.00
2017-12-09T08:42:20.449Z,5.50
2017-12-09T08:43:20.460Z,5.60
2017-12-09T08:44:20.480Z,6.10
2017-12-09T08:45:20.481Z,5.40
2017-12-09T08:46:20.496Z,6.70
2017-12-09T08:47:20.509Z,6.80
2017-12-09T08:48:20.668Z,6.80
2017-12-09T08:49:20.534Z,5.20
2017-12-09T08:50:20.545Z,7.50
2017-12-09T08:51:20.571Z,5.70
2017-12-09T08:52:20.570Z,5.00
2017-12-09T08:53:20.581Z,3.90
2017-12-09T08:54:20.594Z,5.00
2017-12-09T08:55:20.612Z,3.50
2017-12-09T08:56:20.622Z,4.50
2017-12-09T08:57:20.631Z,4.30
2017-12-09T08:58:20.641Z,3.40
2017-12-09T08:59:20.657Z,5.80
2017-12-09T09:00:20.666Z,5.10
2017-12-09T09:01:20.679Z,4.40
2017-12-09T09:02:20.690Z,4.00
2017-12-09T09:03:20.717Z,4.40
2017-12-09T09:04:20.719Z,4.60
2017-12-09T09:05:20.727Z,6.00
2017-12-09T09:06:20.741Z,5.40
2017-12-09T09:07:20.752Z,4.40
2017-12-09T09:08:20.764Z,4.90
2017-12-09T09:09:20.780Z,5.60
2017-12-09T09:10:20.788Z,6.40
2017-12-09T09:11:20.800Z,4.70
2017-12-09T09:12:20.818Z,4.60
2017-12-09T09:13:20.823Z,5.60
2017-12-09T09:14:20.838Z,5.40
2017-12-09T09:15:20.850Z,5.20
2017-12-09T09:16:20.861Z,4.40
2017-12-09T09:17:20.877Z,6.10
2017-12-09T09:18:20.888Z,9.70
2017-12-09T09:19:20.897Z,9.20
2017-12-09T09:20:20.910Z,9.00
2017-12-09T09:21:20.924Z,5.60
2017-12-09T09:22:20.934Z,5.90
2017-12-09T09:23:20.949Z,8.00
2017-12-09T09:24:20.967Z,5.30
2017-12-09T09:25:20.974Z,6.90
2017-12-09T09:26:20.985Z,6.00
2017-12-09T09:27:21.034Z,6.10
2017-12-09T09:28:21.008Z,6.10
2017-12-09T09:29:21.020Z,5.60
2017-12-09T09:30:21.033Z,6.60
2017-12-09T09:31:21.043Z,6.20
2017-12-09T09:32:21.060Z,6.40
2017-12-09T09:33:21.068Z,7.70
2017-12-09T09:34:21.083Z,8.00
2017-12-09T09:35:21.094Z,8.30
2017-12-09T09:36:21.108Z,6.70
2017-12-09T09:37:21.124Z,8.80
2017-12-09T09:38:21.132Z,7.60
2017-12-09T09:39:21.142Z,5.70
2017-12-09T09:40:21.160Z,4.80
2017-12-09T09:41:21.173Z,5.20
2017-12-09T09:42:21.366Z,5.90
2017-12-09T09:43:21.208Z,7.10
2017-12-09T09:44:21.203Z,7.90
2017-12-09T09:45:21.225Z,7.00
2017-12-09T09:46:21.229Z,7.50
2017-12-09T09:47:21.240Z,5.00
2017-12-09T09:48:21.253Z,7.90
2017-12-09T09:49:21.266Z,4.40
2017-12-09T09:50:21.278Z,6.00
2017-12-09T09:51:21.290Z,8.90
2017-12-09T09:52:21.308Z,6.20
2017-12-09T09:53:21.321Z,5.80
2017-12-09T09:54:21.325Z,7.10
2017-12-09T09:55:21.347Z,6.20
2017-12-09T09:56:21.354Z,5.00
2017-12-09T09:57:21.373Z,5.60
2017-12-09T09:58:21.377Z,7.90
2017-12-09T09:59:21.389Z,5.80
2017-12-09T10:00:21.407Z,6.70
2017-12-09T10:01:21.413Z,6.10
2017-12-09T10:02:21.428Z,7.00
2017-12-09T10:03:21.441Z,6.20
2017-12-09T10:04:21.454Z,9.60
2017-12-09T10:05:21.462Z,7.90
2017-12-09T10:06:21.475Z,7.20
2017-12-09T10:07:21.488Z,10.80
2017-12-09T10:08:21.504Z,9.10
2017-12-09T10:09:21.515Z,8.00
2017-12-09T10:10:21.528Z,7.30
2017-12-09T10:11:21.541Z,8.30
2017-12-09T10:12:21.556Z,7.60
2017-12-09T10:13:21.566Z,7.20
2017-12-09T10:14:21.578Z,9.60
2017-12-09T10:15:21.589Z,10.10
2017-12-09T10:16:21.606Z,11.50
2017-12-09T10:17:21.659Z,13.60
2017-12-09T10:18:21.628Z,12.10
2017-12-09T10:19:21.638Z,14.00
2017-12-09T10:20:21.653Z,13.10
2017-12-09T10:21:21.664Z,9.80
2017-12-09T10:22:21.676Z,13.80
2017-12-09T10:23:21.690Z,14.00
2017-12-09T10:24:21.704Z,14.00
2017-12-09T10:25:21.715Z,13.20
2017-12-09T10:26:21.730Z,14.50
2017-12-09T10:27:21.740Z,16.80
2017-12-09T10:28:21.755Z,13.60
2017-12-09T10:29:21.765Z,19.10
2017-12-09T10:30:21.783Z,14.30
2017-12-09T10:31:21.790Z,13.80
2017-12-09T10:32:21.803Z,15.80
2017-12-09T10:33:21.816Z,14.80
2017-12-09T10:34:21.828Z,14.50
2017-12-09T10:35:21.846Z,16.90
2017-12-09T10:36:21.852Z,16.00
2017-12-09T10:37:21.866Z,16.90
2017-12-09T10:38:21.884Z,16.30
2017-12-09T10:39:21.892Z,14.30
2017-12-09T10:40:21.905Z,15.10
2017-12-09T10:41:21.916Z,14.40
2017-12-09T10:42:21.929Z,15.90
2017-12-09T10:43:21.940Z,14.40
2017-12-09T10:44:21.953Z,13.60
2017-12-09T10:45:21.966Z,12.60
2017-12-09T10:46:21.981Z,15.90
2017-12-09T10:47:21.991Z,13.60
2017-12-09T10:48:22.011Z,14.10
2017-12-09T10:49:22.017Z,16.00
2017-12-09T10:50:22.029Z,19.30
2017-12-09T10:51:22.038Z,17.10
2017-12-09T10:52:22.054Z,17.30
2017-12-09T10:53:22.065Z,16.10
2017-12-09T10:54:22.077Z,18.20
2017-12-09T10:55:22.091Z,18.70
2017-12-09T10:56:22.106Z,17.00
2017-12-09T10:57:22.117Z,20.10
2017-12-09T10:58:22.129Z,21.70
2017-12-09T10:59:22.142Z,19.10
2017-12-09T11:00:22.153Z,19.90
2017-12-09T11:01:22.165Z,17.40
2017-12-09T11:02:22.176Z,23.00
2017-12-09T11:03:22.188Z,18.10
2017-12-09T11:04:22.203Z,23.60
2017-12-09T11:05:22.213Z,20.00
2017-12-09T11:06:22.228Z,18.50
2017-12-09T11:07:22.239Z,17.90
2017-12-09T11:08:22.254Z,13.60
2017-12-09T11:09:22.264Z,15.70
2017-12-09T11:10:22.279Z,17.10
2017-12-09T11:11:22.291Z,15.00
2017-12-09T11:12:22.306Z,15.60
2017-12-09T11:13:22.315Z,20.00
2017-12-09T11:14:22.327Z,15.10
2017-12-09T11:15:22.340Z,14.60
2017-12-09T11:16:22.364Z,15.30
2017-12-09T11:17:22.367Z,16.30
2017-12-09T11:18:22.379Z,14.60
2017-12-09T11:19:22.392Z,17.40
2017-12-09T11:20:22.403Z,14.20
2017-12-09T11:21:22.422Z,13.60
2017-12-09T11:22:22.430Z,17.20
2017-12-09T11:23:22.445Z,19.10
2017-12-09T11:24:22.453Z,21.00
2017-12-09T11:25:22.469Z,18.90
2017-12-09T11:26:22.481Z,16.90
2017-12-09T11:27:22.492Z,19.30
2017-12-09T11:28:22.506Z,19.80
2017-12-09T11:29:22.520Z,20.20
2017-12-09T11:30:22.530Z,21.20
2017-12-09T11:31:22.546Z,18.10
2017-12-09T11:32:22.574Z,21.50
2017-12-09T11:33:22.573Z,20.40
2017-12-09T11:34:22.585Z,16.80
2017-12-09T11:35:22.604Z,17.90
2017-12-09T11:36:22.609Z,19.90
2017-12-09T11:37:22.622Z,27.60
2017-12-09T11:38:22.639Z,24.40
2017-12-09T11:39:22.646Z,29.50
2017-12-09T11:40:22.659Z,25.70
2017-12-09T11:41:22.673Z,22.40
2017-12-09T11:42:22.686Z,18.90
2017-12-09T11:43:22.718Z,18.20
2017-12-09T11:44:22.707Z,18.40
2017-12-09T11:45:22.719Z,18.70
2017-12-09T11:46:22.738Z,18.60
2017-12-09T11:47:22.743Z,16.60
2017-12-09T11:48:22.761Z,17.40
2017-12-09T11:49:22.773Z,19.00
2017-12-09T11:50:22.795Z,17.70
2017-12-09T11:51:22.802Z,17.80
2017-12-09T11:52:22.817Z,18.10
2017-12-09T11:53:22.832Z,18.80
2017-12-09T11:54:22.843Z,15.60
2017-12-09T11:55:22.848Z,17.40
2017-12-09T11:56:22.871Z,16.40
2017-12-09T11:57:22.871Z,13.80
2017-12-09T11:58:22.884Z,17.60
2017-12-09T11:59:22.899Z,17.30
2017-12-09T12:00:22.915Z,21.50
2017-12-09T12:01:22.924Z,15.90
2017-12-09T12:02:22.936Z,17.30
2017-12-09T12:03:22.953Z,15.70
2017-12-09T12:04:22.971Z,16.00
2017-12-09T12:05:22.973Z,16.40
2017-12-09T12:06:22.991Z,16.30
2017-12-09T12:07:23.002Z,17.60
2017-12-09T12:08:23.029Z,16.50
2017-12-09T12:09:23.030Z,15.40
2017-12-09T12:10:23.037Z,16.00
2017-12-09T12:11:23.054Z,14.80
2017-12-09T12:12:23.068Z,19.70
2017-12-09T12:13:23.086Z,15.40
2017-12-09T12:14:23.090Z,18.40
2017-12-09T12:15:23.103Z,15.40
2017-12-09T12:16:23.126Z,14.80
2017-12-09T12:17:23.128Z,14.20
2017-12-09T12:18:23.145Z,16.30
2017-12-09T12:19:23.308Z,17.90
2017-12-09T12:20:23.169Z,18.20
2017-12-09T12:21:23.182Z,15.00
2017-12-09T12:22:23.193Z,21.40
2017-12-09T12:23:23.208Z,19.10
2017-12-09T12:24:23.220Z,14.40
2017-12-09T12:25:23.232Z,16.50
2017-12-09T12:26:23.243Z,15.60
2017-12-09T12:27:23.258Z,16.80
2017-12-09T12:28:23.273Z,17.10
2017-12-09T12:29:23.287Z,16.90
2017-12-09T12:30:23.301Z,17.50
2017-12-09T12:31:23.312Z,17.20
2017-12-09T12:32:23.324Z,19.10
2017-12-09T12:33:23.338Z,19.70
2017-12-09T12:34:23.349Z,15.60
2017-12-09T12:35:23.369Z,14.70
2017-12-09T12:36:23.378Z,17.40
2017-12-09T12:37:23.392Z,17.10
2017-12-09T12:38:23.410Z,20.20
2017-12-09T12:39:23.417Z,17.50
2017-12-09T12:40:23.428Z,17.10
2017-12-09T12:41:23.444Z,16.40
2017-12-09T12:42:23.454Z,15.60
2017-12-09T12:43:23.472Z,15.80
2017-12-09T12:44:23.483Z,17.20
2017-12-09T12:45:23.493Z,16.60
2017-12-09T12:46:23.508Z,13.90
2017-12-09T12:47:23.521Z,16.10
2017-12-09T12:48:23.540Z,13.30
2017-12-09T12:49:23.545Z,15.60
2017-12-09T12:50:23.568Z,17.60
2017-12-09T12:51:23.575Z,17.80
2017-12-09T12:52:23.594Z,18.50
2017-12-09T12:53:23.603Z,14.60
2017-12-09T12:54:23.614Z,18.60
2017-12-09T12:55:23.630Z,16.00
2017-12-09T12:56:23.638Z,17.90
2017-12-09T12:57:23.698Z,17.90
2017-12-09T12:58:23.665Z,16.60